sensor_id;sensor_type;location;lat;lon;timestamp;P1;durP1;ratioP1;P2;durP2;ratioP2
4084;SDS011;2057;50.858;6.572;2023-02-28T00:00:19;10.77;;;3.95;;
4084;SDS011;2057;50.858;6.572;2023-02-28T00:02:45;5.43;;;2.75;;
4084;SDS011;2057;50.858;6.572;2023-02-28T00:05:11;4.13;;;2.73;;
4084;SDS011;2057;50.858;6.572;2023-02-28T00:07:38;5.85;;;2.92;;
4084;SDS011;2057;50.858;6.572;2023-02-28T00:10:06;5.80;;;2.50;;
4084;SDS011;2057;50.858;6.572;2023-02-28T00:12:34;5.18;;;2.60;;
4084;SDS011;2057;50.858;6.572;2023-02-28T00:15:00;9.27;;;3.20;;
4084;SDS011;2057;50.858;6.572;2023-02-28T00:17:26;9.93;;;3.50;;
4084;SDS011;2057;50.858;6.572;2023-02-28T00:19:51;7.80;;;3.60;;
4084;SDS011;2057;50.858;6.572;2023-02-28T00:22:18;9.43;;;4.20;;
4084;SDS011;2057;50.858;6.572;2023-02-28T00:24:46;11.35;;;3.47;;
4084;SDS011;2057;50.858;6.572;2023-02-28T00:27:12;13.07;;;4.50;;
4084;SDS011;2057;50.858;6.572;2023-02-28T00:29:38;8.85;;;5.05;;
4084;SDS011;2057;50.858;6.572;2023-02-28T00:32:04;5.70;;;4.20;;
4084;SDS011;2057;50.858;6.572;2023-02-28T00:34:30;8.05;;;3.45;;
4084;SDS011;2057;50.858;6.572;2023-02-28T00:36:56;12.90;;;3.13;;
4084;SDS011;2057;50.858;6.572;2023-02-28T00:39:21;13.67;;;4.30;;
4084;SDS011;2057;50.858;6.572;2023-02-28T00:41:51;11.68;;;3.50;;
4084;SDS011;2057;50.858;6.572;2023-02-28T00:44:16;6.47;;;2.80;;
4084;SDS011;2057;50.858;6.572;2023-02-28T00:46:41;13.70;;;3.00;;
4084;SDS011;2057;50.858;6.572;2023-02-28T00:49:07;16.83;;;4.30;;
4084;SDS011;2057;50.858;6.572;2023-02-28T00:51:32;5.47;;;3.20;;
4084;SDS011;2057;50.858;6.572;2023-02-28T00:53:58;7.30;;;3.00;;
4084;SDS011;2057;50.858;6.572;2023-02-28T00:56:23;7.10;;;3.77;;
4084;SDS011;2057;50.858;6.572;2023-02-28T00:58:48;9.20;;;3.63;;
4084;SDS011;2057;50.858;6.572;2023-02-28T01:01:17;8.65;;;4.07;;
4084;SDS011;2057;50.858;6.572;2023-02-28T01:03:42;7.63;;;3.90;;
4084;SDS011;2057;50.858;6.572;2023-02-28T01:06:07;10.73;;;3.90;;
4084;SDS011;2057;50.858;6.572;2023-02-28T01:08:33;8.53;;;3.03;;
4084;SDS011;2057;50.858;6.572;2023-02-28T01:11:06;6.30;;;2.87;;
4084;SDS011;2057;50.858;6.572;2023-02-28T01:13:32;8.60;;;3.60;;
4084;SDS011;2057;50.858;6.572;2023-02-28T01:15:58;5.60;;;3.47;;
4084;SDS011;2057;50.858;6.572;2023-02-28T01:18:23;5.30;;;2.80;;
4084;SDS011;2057;50.858;6.572;2023-02-28T01:20:49;8.67;;;3.50;;
4084;SDS011;2057;50.858;6.572;2023-02-28T01:23:17;3.35;;;2.35;;
4084;SDS011;2057;50.858;6.572;2023-02-28T01:25:44;4.50;;;2.00;;
4084;SDS011;2057;50.858;6.572;2023-02-28T01:28:10;3.67;;;2.43;;
4084;SDS011;2057;50.858;6.572;2023-02-28T01:30:38;5.70;;;2.40;;
4084;SDS011;2057;50.858;6.572;2023-02-28T01:33:03;3.97;;;2.95;;
4084;SDS011;2057;50.858;6.572;2023-02-28T01:35:28;4.43;;;2.80;;
4084;SDS011;2057;50.858;6.572;2023-02-28T01:37:57;5.03;;;2.90;;
4084;SDS011;2057;50.858;6.572;2023-02-28T01:40:23;11.10;;;3.23;;
4084;SDS011;2057;50.858;6.572;2023-02-28T01:42:48;13.27;;;3.23;;
4084;SDS011;2057;50.858;6.572;2023-02-28T01:45:26;2.53;;;2.10;;
4084;SDS011;2057;50.858;6.572;2023-02-28T01:47:52;4.93;;;2.03;;
4084;SDS011;2057;50.858;6.572;2023-02-28T01:50:24;4.50;;;2.53;;
4084;SDS011;2057;50.858;6.572;2023-02-28T01:52:53;6.28;;;3.03;;
4084;SDS011;2057;50.858;6.572;2023-02-28T01:55:23;7.15;;;2.85;;
4084;SDS011;2057;50.858;6.572;2023-02-28T01:57:54;6.97;;;2.97;;
4084;SDS011;2057;50.858;6.572;2023-02-28T02:00:23;7.85;;;2.65;;
4084;SDS011;2057;50.858;6.572;2023-02-28T02:02:53;3.47;;;2.40;;
4084;SDS011;2057;50.858;6.572;2023-02-28T02:05:23;5.78;;;2.67;;
4084;SDS011;2057;50.858;6.572;2023-02-28T02:10:53;5.85;;;3.00;;
4084;SDS011;2057;50.858;6.572;2023-02-28T02:16:42;3.78;;;2.60;;
4084;SDS011;2057;50.858;6.572;2023-02-28T02:36:30;7.75;;;2.95;;
4084;SDS011;2057;50.858;6.572;2023-02-28T02:41:52;4.78;;;2.13;;
4084;SDS011;2057;50.858;6.572;2023-02-28T02:44:32;2.38;;;1.92;;
4084;SDS011;2057;50.858;6.572;2023-02-28T02:47:09;6.20;;;2.63;;
4084;SDS011;2057;50.858;6.572;2023-02-28T02:49:39;8.10;;;2.20;;
4084;SDS011;2057;50.858;6.572;2023-02-28T02:52:12;4.05;;;1.95;;
4084;SDS011;2057;50.858;6.572;2023-02-28T02:54:42;5.03;;;2.40;;
4084;SDS011;2057;50.858;6.572;2023-02-28T02:57:25;3.17;;;2.47;;
4084;SDS011;2057;50.858;6.572;2023-02-28T02:59:58;3.00;;;2.42;;
4084;SDS011;2057;50.858;6.572;2023-02-28T03:02:26;4.85;;;2.20;;
4084;SDS011;2057;50.858;6.572;2023-02-28T03:04:59;3.88;;;2.30;;
4084;SDS011;2057;50.858;6.572;2023-02-28T03:07:28;5.88;;;2.15;;
4084;SDS011;2057;50.858;6.572;2023-02-28T03:09:54;4.20;;;2.40;;
4084;SDS011;2057;50.858;6.572;2023-02-28T03:12:21;5.63;;;2.97;;
4084;SDS011;2057;50.858;6.572;2023-02-28T03:26:19;5.15;;;2.90;;
4084;SDS011;2057;50.858;6.572;2023-02-28T03:28:52;2.70;;;2.35;;
4084;SDS011;2057;50.858;6.572;2023-02-28T03:31:26;4.22;;;2.92;;
4084;SDS011;2057;50.858;6.572;2023-02-28T03:34:22;6.93;;;2.80;;
4084;SDS011;2057;50.858;6.572;2023-02-28T03:36:54;6.53;;;2.72;;
4084;SDS011;2057;50.858;6.572;2023-02-28T03:39:35;6.00;;;2.50;;
4084;SDS011;2057;50.858;6.572;2023-02-28T03:42:14;5.07;;;2.88;;
4084;SDS011;2057;50.858;6.572;2023-02-28T03:44:45;2.95;;;2.65;;
4084;SDS011;2057;50.858;6.572;2023-02-28T03:47:23;3.40;;;2.30;;
4084;SDS011;2057;50.858;6.572;2023-02-28T03:52:26;6.35;;;3.05;;
4084;SDS011;2057;50.858;6.572;2023-02-28T03:54:57;2.95;;;2.30;;
4084;SDS011;2057;50.858;6.572;2023-02-28T03:57:39;7.13;;;2.80;;
4084;SDS011;2057;50.858;6.572;2023-02-28T04:00:25;6.00;;;3.25;;
4084;SDS011;2057;50.858;6.572;2023-02-28T04:02:56;4.05;;;2.25;;
4084;SDS011;2057;50.858;6.572;2023-02-28T04:05:22;6.13;;;3.13;;
4084;SDS011;2057;50.858;6.572;2023-02-28T04:07:51;5.68;;;2.75;;
4084;SDS011;2057;50.858;6.572;2023-02-28T04:10:16;6.85;;;2.90;;
4084;SDS011;2057;50.858;6.572;2023-02-28T04:12:42;6.97;;;2.97;;
4084;SDS011;2057;50.858;6.572;2023-02-28T04:15:07;4.97;;;2.50;;
4084;SDS011;2057;50.858;6.572;2023-02-28T04:17:33;8.90;;;2.60;;
4084;SDS011;2057;50.858;6.572;2023-02-28T04:19:58;3.73;;;2.70;;
4084;SDS011;2057;50.858;6.572;2023-02-28T04:22:24;3.27;;;2.40;;
4084;SDS011;2057;50.858;6.572;2023-02-28T04:24:52;3.25;;;2.30;;
4084;SDS011;2057;50.858;6.572;2023-02-28T04:27:19;8.70;;;2.20;;
4084;SDS011;2057;50.858;6.572;2023-02-28T04:29:45;6.57;;;2.95;;
4084;SDS011;2057;50.858;6.572;2023-02-28T04:32:16;5.95;;;2.47;;
4084;SDS011;2057;50.858;6.572;2023-02-28T04:34:41;5.25;;;2.53;;
4084;SDS011;2057;50.858;6.572;2023-02-28T04:37:06;6.60;;;2.90;;
4084;SDS011;2057;50.858;6.572;2023-02-28T04:39:34;6.87;;;2.93;;
4084;SDS011;2057;50.858;6.572;2023-02-28T04:42:01;3.13;;;2.35;;
4084;SDS011;2057;50.858;6.572;2023-02-28T04:44:26;6.07;;;2.63;;
4084;SDS011;2057;50.858;6.572;2023-02-28T04:46:51;4.90;;;2.80;;
4084;SDS011;2057;50.858;6.572;2023-02-28T04:49:17;5.73;;;2.77;;
4084;SDS011;2057;50.858;6.572;2023-02-28T04:51:42;3.23;;;2.40;;
4084;SDS011;2057;50.858;6.572;2023-02-28T04:54:08;5.93;;;2.90;;
4084;SDS011;2057;50.858;6.572;2023-02-28T04:56:33;10.50;;;2.80;;
4084;SDS011;2057;50.858;6.572;2023-02-28T04:58:59;3.70;;;2.90;;
4084;SDS011;2057;50.858;6.572;2023-02-28T05:01:33;7.80;;;2.40;;
4084;SDS011;2057;50.858;6.572;2023-02-28T05:04:01;3.13;;;2.10;;
4084;SDS011;2057;50.858;6.572;2023-02-28T05:06:28;3.35;;;3.03;;
4084;SDS011;2057;50.858;6.572;2023-02-28T05:08:55;11.18;;;3.22;;
4084;SDS011;2057;50.858;6.572;2023-02-28T05:11:24;5.73;;;2.43;;
4084;SDS011;2057;50.858;6.572;2023-02-28T05:13:51;2.83;;;2.60;;
4084;SDS011;2057;50.858;6.572;2023-02-28T05:16:17;7.77;;;3.63;;
4084;SDS011;2057;50.858;6.572;2023-02-28T05:18:43;9.45;;;3.58;;
4084;SDS011;2057;50.858;6.572;2023-02-28T05:21:26;5.90;;;2.77;;
4084;SDS011;2057;50.858;6.572;2023-02-28T05:23:54;6.72;;;2.70;;
4084;SDS011;2057;50.858;6.572;2023-02-28T05:26:20;4.00;;;2.70;;
4084;SDS011;2057;50.858;6.572;2023-02-28T05:28:45;8.90;;;3.80;;
4084;SDS011;2057;50.858;6.572;2023-02-28T05:31:11;6.30;;;3.77;;
4084;SDS011;2057;50.858;6.572;2023-02-28T05:33:36;5.07;;;3.23;;
4084;SDS011;2057;50.858;6.572;2023-02-28T05:36:02;6.80;;;4.07;;
4084;SDS011;2057;50.858;6.572;2023-02-28T05:38:28;8.30;;;3.50;;
4084;SDS011;2057;50.858;6.572;2023-02-28T05:40:53;5.67;;;3.73;;
4084;SDS011;2057;50.858;6.572;2023-02-28T05:43:18;12.10;;;3.80;;
4084;SDS011;2057;50.858;6.572;2023-02-28T05:45:44;5.80;;;3.70;;
4084;SDS011;2057;50.858;6.572;2023-02-28T05:48:10;5.30;;;3.37;;
4084;SDS011;2057;50.858;6.572;2023-02-28T05:50:36;10.07;;;4.05;;
4084;SDS011;2057;50.858;6.572;2023-02-28T05:53:02;5.17;;;3.03;;
4084;SDS011;2057;50.858;6.572;2023-02-28T05:55:29;8.00;;;3.60;;
4084;SDS011;2057;50.858;6.572;2023-02-28T05:57:55;9.17;;;3.23;;
4084;SDS011;2057;50.858;6.572;2023-02-28T06:00:21;5.90;;;3.60;;
4084;SDS011;2057;50.858;6.572;2023-02-28T06:02:46;8.17;;;3.80;;
4084;SDS011;2057;50.858;6.572;2023-02-28T06:05:16;10.73;;;3.50;;
4084;SDS011;2057;50.858;6.572;2023-02-28T06:07:42;6.22;;;3.97;;
4084;SDS011;2057;50.858;6.572;2023-02-28T06:10:09;5.73;;;3.20;;
4084;SDS011;2057;50.858;6.572;2023-02-28T06:12:36;4.35;;;3.50;;
4084;SDS011;2057;50.858;6.572;2023-02-28T06:15:02;5.97;;;4.85;;
4084;SDS011;2057;50.858;6.572;2023-02-28T06:17:28;10.00;;;3.37;;
4084;SDS011;2057;50.858;6.572;2023-02-28T06:19:53;4.30;;;3.57;;
4084;SDS011;2057;50.858;6.572;2023-02-28T06:22:19;6.23;;;3.83;;
4084;SDS011;2057;50.858;6.572;2023-02-28T06:24:44;5.13;;;3.17;;
4084;SDS011;2057;50.858;6.572;2023-02-28T06:27:09;12.50;;;3.80;;
4084;SDS011;2057;50.858;6.572;2023-02-28T06:29:35;5.93;;;4.00;;
4084;SDS011;2057;50.858;6.572;2023-02-28T06:32:01;9.50;;;3.83;;
4084;SDS011;2057;50.858;6.572;2023-02-28T06:34:27;9.17;;;3.70;;
4084;SDS011;2057;50.858;6.572;2023-02-28T06:36:55;5.05;;;3.92;;
4084;SDS011;2057;50.858;6.572;2023-02-28T06:39:21;9.47;;;4.97;;
4084;SDS011;2057;50.858;6.572;2023-02-28T06:41:46;10.73;;;3.37;;
4084;SDS011;2057;50.858;6.572;2023-02-28T06:44:14;8.10;;;4.05;;
4084;SDS011;2057;50.858;6.572;2023-02-28T06:46:41;20.40;;;5.40;;
4084;SDS011;2057;50.858;6.572;2023-02-28T06:49:07;9.98;;;5.50;;
4084;SDS011;2057;50.858;6.572;2023-02-28T06:51:34;6.88;;;5.03;;
4084;SDS011;2057;50.858;6.572;2023-02-28T06:53:59;7.50;;;4.50;;
4084;SDS011;2057;50.858;6.572;2023-02-28T06:56:25;12.20;;;5.73;;
4084;SDS011;2057;50.858;6.572;2023-02-28T06:58:51;11.43;;;4.20;;
4084;SDS011;2057;50.858;6.572;2023-02-28T07:01:20;7.25;;;4.30;;
4084;SDS011;2057;50.858;6.572;2023-02-28T07:03:47;10.40;;;4.95;;
4084;SDS011;2057;50.858;6.572;2023-02-28T07:06:17;5.00;;;2.95;;
4084;SDS011;2057;50.858;6.572;2023-02-28T07:08:47;10.70;;;4.30;;
4084;SDS011;2057;50.858;6.572;2023-02-28T07:11:13;5.78;;;4.53;;
4084;SDS011;2057;50.858;6.572;2023-02-28T07:13:39;6.13;;;3.90;;
4084;SDS011;2057;50.858;6.572;2023-02-28T07:16:05;6.70;;;3.60;;
4084;SDS011;2057;50.858;6.572;2023-02-28T07:18:32;6.95;;;3.95;;
4084;SDS011;2057;50.858;6.572;2023-02-28T07:20:58;11.00;;;4.00;;
4084;SDS011;2057;50.858;6.572;2023-02-28T07:23:23;7.60;;;5.00;;
4084;SDS011;2057;50.858;6.572;2023-02-28T07:25:49;12.53;;;3.53;;
4084;SDS011;2057;50.858;6.572;2023-02-28T07:28:18;6.68;;;4.07;;
4084;SDS011;2057;50.858;6.572;2023-02-28T07:30:43;6.10;;;3.43;;
4084;SDS011;2057;50.858;6.572;2023-02-28T07:33:09;9.70;;;4.27;;
4084;SDS011;2057;50.858;6.572;2023-02-28T07:35:35;5.20;;;3.67;;
4084;SDS011;2057;50.858;6.572;2023-02-28T07:38:01;9.60;;;3.80;;
4084;SDS011;2057;50.858;6.572;2023-02-28T07:40:27;3.40;;;2.80;;
4084;SDS011;2057;50.858;6.572;2023-02-28T07:42:53;3.63;;;3.13;;
4084;SDS011;2057;50.858;6.572;2023-02-28T07:45:21;12.63;;;3.95;;
4084;SDS011;2057;50.858;6.572;2023-02-28T07:47:48;4.53;;;3.20;;
4084;SDS011;2057;50.858;6.572;2023-02-28T07:50:14;4.55;;;3.13;;
4084;SDS011;2057;50.858;6.572;2023-02-28T07:52:40;7.45;;;3.17;;
4084;SDS011;2057;50.858;6.572;2023-02-28T07:55:07;17.83;;;3.15;;
4084;SDS011;2057;50.858;6.572;2023-02-28T07:57:34;3.55;;;2.50;;
4084;SDS011;2057;50.858;6.572;2023-02-28T07:59:59;6.87;;;3.70;;
4084;SDS011;2057;50.858;6.572;2023-02-28T08:02:25;7.60;;;3.80;;
4084;SDS011;2057;50.858;6.572;2023-02-28T08:04:50;10.70;;;4.03;;
4084;SDS011;2057;50.858;6.572;2023-02-28T08:07:16;2.80;;;2.50;;
4084;SDS011;2057;50.858;6.572;2023-02-28T08:09:45;8.65;;;3.10;;
4084;SDS011;2057;50.858;6.572;2023-02-28T08:12:10;3.75;;;3.13;;
4084;SDS011;2057;50.858;6.572;2023-02-28T08:14:36;6.73;;;3.53;;
4084;SDS011;2057;50.858;6.572;2023-02-28T08:17:04;7.97;;;3.00;;
4084;SDS011;2057;50.858;6.572;2023-02-28T08:19:29;12.10;;;3.47;;
4084;SDS011;2057;50.858;6.572;2023-02-28T08:21:55;4.70;;;2.57;;
4084;SDS011;2057;50.858;6.572;2023-02-28T08:24:21;3.22;;;2.50;;
4084;SDS011;2057;50.858;6.572;2023-02-28T08:26:49;3.08;;;2.58;;
4084;SDS011;2057;50.858;6.572;2023-02-28T08:29:15;6.43;;;2.67;;
4084;SDS011;2057;50.858;6.572;2023-02-28T08:31:40;2.50;;;2.13;;
4084;SDS011;2057;50.858;6.572;2023-02-28T08:34:10;2.50;;;2.30;;
4084;SDS011;2057;50.858;6.572;2023-02-28T08:36:41;2.65;;;2.28;;
4084;SDS011;2057;50.858;6.572;2023-02-28T08:39:11;22.88;;;3.05;;
4084;SDS011;2057;50.858;6.572;2023-02-28T08:41:36;5.88;;;2.63;;
4084;SDS011;2057;50.858;6.572;2023-02-28T08:44:02;6.97;;;2.40;;
4084;SDS011;2057;50.858;6.572;2023-02-28T08:46:27;4.27;;;2.30;;
4084;SDS011;2057;50.858;6.572;2023-02-28T08:48:53;2.83;;;1.87;;
4084;SDS011;2057;50.858;6.572;2023-02-28T08:51:20;2.70;;;1.90;;
4084;SDS011;2057;50.858;6.572;2023-02-28T08:53:51;2.42;;;2.10;;
4084;SDS011;2057;50.858;6.572;2023-02-28T08:56:21;3.55;;;2.50;;
4084;SDS011;2057;50.858;6.572;2023-02-28T08:58:47;3.30;;;2.70;;
4084;SDS011;2057;50.858;6.572;2023-02-28T09:01:18;2.45;;;2.25;;
4084;SDS011;2057;50.858;6.572;2023-02-28T09:03:46;5.07;;;1.77;;
4084;SDS011;2057;50.858;6.572;2023-02-28T09:06:13;6.13;;;2.08;;
4084;SDS011;2057;50.858;6.572;2023-02-28T09:08:40;3.95;;;2.45;;
4084;SDS011;2057;50.858;6.572;2023-02-28T09:11:05;4.73;;;1.80;;
4084;SDS011;2057;50.858;6.572;2023-02-28T09:13:31;5.17;;;2.10;;
4084;SDS011;2057;50.858;6.572;2023-02-28T09:15:58;3.88;;;2.42;;
4084;SDS011;2057;50.858;6.572;2023-02-28T09:18:27;2.45;;;1.83;;
4084;SDS011;2057;50.858;6.572;2023-02-28T09:20:56;4.88;;;1.70;;
4084;SDS011;2057;50.858;6.572;2023-02-28T09:23:22;1.75;;;1.63;;
4084;SDS011;2057;50.858;6.572;2023-02-28T09:25:49;3.10;;;1.90;;
4084;SDS011;2057;50.858;6.572;2023-02-28T09:28:19;2.08;;;1.90;;
4084;SDS011;2057;50.858;6.572;2023-02-28T09:30:45;10.30;;;2.30;;
4084;SDS011;2057;50.858;6.572;2023-02-28T09:33:13;5.03;;;1.92;;
4084;SDS011;2057;50.858;6.572;2023-02-28T09:35:39;4.28;;;1.63;;
4084;SDS011;2057;50.858;6.572;2023-02-28T09:38:05;2.17;;;1.97;;
4084;SDS011;2057;50.858;6.572;2023-02-28T09:40:34;2.63;;;1.65;;
4084;SDS011;2057;50.858;6.572;2023-02-28T09:43:01;2.30;;;1.80;;
4084;SDS011;2057;50.858;6.572;2023-02-28T09:45:31;2.97;;;1.63;;
4084;SDS011;2057;50.858;6.572;2023-02-28T09:48:01;1.98;;;1.73;;
4084;SDS011;2057;50.858;6.572;2023-02-28T09:53:28;3.13;;;1.85;;
4084;SDS011;2057;50.858;6.572;2023-02-28T09:56:21;2.47;;;2.10;;
4084;SDS011;2057;50.858;6.572;2023-02-28T10:04:38;10.48;;;2.05;;
4084;SDS011;2057;50.858;6.572;2023-02-28T10:07:27;2.83;;;1.50;;
4084;SDS011;2057;50.858;6.572;2023-02-28T10:10:04;6.22;;;2.05;;
4084;SDS011;2057;50.858;6.572;2023-02-28T10:12:44;1.90;;;1.65;;
4084;SDS011;2057;50.858;6.572;2023-02-28T10:15:14;2.72;;;1.60;;
4084;SDS011;2057;50.858;6.572;2023-02-28T10:17:42;2.53;;;1.52;;
4084;SDS011;2057;50.858;6.572;2023-02-28T10:25:32;3.05;;;2.10;;
4084;SDS011;2057;50.858;6.572;2023-02-28T10:28:20;4.05;;;2.17;;
4084;SDS011;2057;50.858;6.572;2023-02-28T10:30:51;3.42;;;2.03;;
4084;SDS011;2057;50.858;6.572;2023-02-28T10:33:19;3.13;;;1.77;;
4084;SDS011;2057;50.858;6.572;2023-02-28T10:35:45;5.47;;;1.98;;
4084;SDS011;2057;50.858;6.572;2023-02-28T10:38:14;2.50;;;1.60;;
4084;SDS011;2057;50.858;6.572;2023-02-28T10:40:44;3.00;;;2.03;;
4084;SDS011;2057;50.858;6.572;2023-02-28T10:45:39;4.63;;;2.10;;
4084;SDS011;2057;50.858;6.572;2023-02-28T10:56:09;3.25;;;2.25;;
4084;SDS011;2057;50.858;6.572;2023-02-28T11:01:47;2.75;;;2.30;;
4084;SDS011;2057;50.858;6.572;2023-02-28T11:04:19;2.90;;;1.90;;
4084;SDS011;2057;50.858;6.572;2023-02-28T11:12:23;5.03;;;3.05;;
4084;SDS011;2057;50.858;6.572;2023-02-28T11:15:06;3.15;;;2.75;;
4084;SDS011;2057;50.858;6.572;2023-02-28T11:20:37;5.28;;;2.30;;
4084;SDS011;2057;50.858;6.572;2023-02-28T11:23:04;4.18;;;2.30;;
4084;SDS011;2057;50.858;6.572;2023-02-28T11:25:36;2.20;;;2.00;;
4084;SDS011;2057;50.858;6.572;2023-02-28T11:28:04;3.05;;;2.45;;
4084;SDS011;2057;50.858;6.572;2023-02-28T11:31:00;6.80;;;2.40;;
4084;SDS011;2057;50.858;6.572;2023-02-28T11:33:27;2.28;;;1.85;;
4084;SDS011;2057;50.858;6.572;2023-02-28T11:36:00;2.30;;;2.08;;
4084;SDS011;2057;50.858;6.572;2023-02-28T11:38:28;1.90;;;1.60;;
4084;SDS011;2057;50.858;6.572;2023-02-28T11:46:40;3.97;;;2.00;;
4084;SDS011;2057;50.858;6.572;2023-02-28T11:49:22;4.75;;;2.60;;
4084;SDS011;2057;50.858;6.572;2023-02-28T11:54:59;2.40;;;2.13;;
4084;SDS011;2057;50.858;6.572;2023-02-28T12:00:36;7.60;;;2.67;;
4084;SDS011;2057;50.858;6.572;2023-02-28T12:08:47;2.60;;;2.40;;
4084;SDS011;2057;50.858;6.572;2023-02-28T12:11:52;5.30;;;2.45;;
4084;SDS011;2057;50.858;6.572;2023-02-28T12:28:10;2.85;;;2.00;;
4084;SDS011;2057;50.858;6.572;2023-02-28T12:30:38;5.50;;;2.85;;
4084;SDS011;2057;50.858;6.572;2023-02-28T12:33:12;2.92;;;1.92;;
4084;SDS011;2057;50.858;6.572;2023-02-28T12:35:48;2.58;;;2.30;;
4084;SDS011;2057;50.858;6.572;2023-02-28T12:41:07;3.50;;;2.78;;
4084;SDS011;2057;50.858;6.572;2023-02-28T12:43:40;6.30;;;2.70;;
4084;SDS011;2057;50.858;6.572;2023-02-28T12:49:16;4.55;;;2.88;;
4084;SDS011;2057;50.858;6.572;2023-02-28T12:51:43;3.17;;;2.25;;
4084;SDS011;2057;50.858;6.572;2023-02-28T12:57:17;2.55;;;2.20;;
4084;SDS011;2057;50.858;6.572;2023-02-28T12:59:51;6.80;;;3.88;;
4084;SDS011;2057;50.858;6.572;2023-02-28T13:08:03;6.25;;;2.85;;
4084;SDS011;2057;50.858;6.572;2023-02-28T13:10:38;3.45;;;2.95;;
4084;SDS011;2057;50.858;6.572;2023-02-28T13:13:05;2.80;;;2.45;;
4084;SDS011;2057;50.858;6.572;2023-02-28T13:15:31;2.90;;;2.40;;
4084;SDS011;2057;50.858;6.572;2023-02-28T13:18:00;3.08;;;2.40;;
4084;SDS011;2057;50.858;6.572;2023-02-28T13:20:27;16.60;;;3.57;;
4084;SDS011;2057;50.858;6.572;2023-02-28T13:22:58;4.50;;;3.40;;
4084;SDS011;2057;50.858;6.572;2023-02-28T13:27:57;7.93;;;2.85;;
4084;SDS011;2057;50.858;6.572;2023-02-28T13:35:44;5.75;;;3.00;;
4084;SDS011;2057;50.858;6.572;2023-02-28T13:38:21;5.63;;;3.72;;
4084;SDS011;2057;50.858;6.572;2023-02-28T13:40:49;4.18;;;2.63;;
4084;SDS011;2057;50.858;6.572;2023-02-28T13:43:16;3.90;;;2.70;;
4084;SDS011;2057;50.858;6.572;2023-02-28T13:46:04;3.65;;;2.55;;
4084;SDS011;2057;50.858;6.572;2023-02-28T13:48:33;3.03;;;2.70;;
4084;SDS011;2057;50.858;6.572;2023-02-28T13:50:58;9.10;;;3.10;;
4084;SDS011;2057;50.858;6.572;2023-02-28T13:53:30;3.80;;;3.03;;
4084;SDS011;2057;50.858;6.572;2023-02-28T13:56:28;3.55;;;2.85;;
4084;SDS011;2057;50.858;6.572;2023-02-28T14:04:43;5.70;;;3.08;;
4084;SDS011;2057;50.858;6.572;2023-02-28T14:07:25;8.43;;;3.35;;
4084;SDS011;2057;50.858;6.572;2023-02-28T14:10:39;5.10;;;2.95;;
4084;SDS011;2057;50.858;6.572;2023-02-28T14:15:43;3.63;;;3.20;;
4084;SDS011;2057;50.858;6.572;2023-02-28T14:20:46;5.50;;;3.42;;
4084;SDS011;2057;50.858;6.572;2023-02-28T14:26:02;6.22;;;2.88;;
4084;SDS011;2057;50.858;6.572;2023-02-28T14:28:44;4.50;;;3.17;;
4084;SDS011;2057;50.858;6.572;2023-02-28T14:31:37;3.92;;;3.08;;
4084;SDS011;2057;50.858;6.572;2023-02-28T14:36:45;4.10;;;3.13;;
4084;SDS011;2057;50.858;6.572;2023-02-28T14:39:30;4.03;;;3.28;;
4084;SDS011;2057;50.858;6.572;2023-02-28T14:41:56;4.03;;;3.40;;
4084;SDS011;2057;50.858;6.572;2023-02-28T14:44:28;3.97;;;2.78;;
4084;SDS011;2057;50.858;6.572;2023-02-28T14:46:58;4.05;;;3.17;;
4084;SDS011;2057;50.858;6.572;2023-02-28T14:49:44;5.43;;;3.35;;
4084;SDS011;2057;50.858;6.572;2023-02-28T14:52:19;6.53;;;3.75;;
4084;SDS011;2057;50.858;6.572;2023-02-28T14:54:51;9.07;;;3.88;;
4084;SDS011;2057;50.858;6.572;2023-02-28T14:57:53;4.57;;;3.53;;
4084;SDS011;2057;50.858;6.572;2023-02-28T15:00:22;4.15;;;3.13;;
4084;SDS011;2057;50.858;6.572;2023-02-28T15:02:52;4.50;;;3.70;;
4084;SDS011;2057;50.858;6.572;2023-02-28T15:05:24;5.50;;;3.70;;
4084;SDS011;2057;50.858;6.572;2023-02-28T15:10:39;6.05;;;3.83;;
4084;SDS011;2057;50.858;6.572;2023-02-28T15:13:16;10.13;;;3.70;;
4084;SDS011;2057;50.858;6.572;2023-02-28T15:18:13;6.30;;;3.60;;
4084;SDS011;2057;50.858;6.572;2023-02-28T15:20:47;4.87;;;3.63;;
4084;SDS011;2057;50.858;6.572;2023-02-28T15:23:16;4.93;;;3.73;;
4084;SDS011;2057;50.858;6.572;2023-02-28T15:25:44;8.57;;;3.80;;
4084;SDS011;2057;50.858;6.572;2023-02-28T15:28:14;8.67;;;3.33;;
4084;SDS011;2057;50.858;6.572;2023-02-28T15:30:50;6.17;;;3.30;;
4084;SDS011;2057;50.858;6.572;2023-02-28T15:35:47;7.50;;;4.27;;
4084;SDS011;2057;50.858;6.572;2023-02-28T15:38:14;6.97;;;3.63;;
4084;SDS011;2057;50.858;6.572;2023-02-28T15:40:58;10.70;;;4.43;;
4084;SDS011;2057;50.858;6.572;2023-02-28T15:48:24;5.83;;;3.40;;
4084;SDS011;2057;50.858;6.572;2023-02-28T15:53:32;6.73;;;3.60;;
4084;SDS011;2057;50.858;6.572;2023-02-28T15:56:04;4.20;;;3.23;;
4084;SDS011;2057;50.858;6.572;2023-02-28T15:58:34;5.20;;;3.27;;
4084;SDS011;2057;50.858;6.572;2023-02-28T16:01:04;5.77;;;3.33;;
4084;SDS011;2057;50.858;6.572;2023-02-28T16:03:46;5.73;;;3.27;;
4084;SDS011;2057;50.858;6.572;2023-02-28T16:08:49;7.43;;;3.20;;
4084;SDS011;2057;50.858;6.572;2023-02-28T16:11:16;8.07;;;3.90;;
4084;SDS011;2057;50.858;6.572;2023-02-28T16:13:42;5.43;;;3.30;;
4084;SDS011;2057;50.858;6.572;2023-02-28T16:16:07;6.43;;;3.40;;
4084;SDS011;2057;50.858;6.572;2023-02-28T16:18:33;6.80;;;4.70;;
4084;SDS011;2057;50.858;6.572;2023-02-28T16:20:58;5.70;;;4.20;;
4084;SDS011;2057;50.858;6.572;2023-02-28T16:23:23;5.57;;;4.07;;
4084;SDS011;2057;50.858;6.572;2023-02-28T16:25:49;6.17;;;4.17;;
4084;SDS011;2057;50.858;6.572;2023-02-28T16:28:19;6.33;;;4.00;;
4084;SDS011;2057;50.858;6.572;2023-02-28T16:30:50;6.60;;;3.83;;
4084;SDS011;2057;50.858;6.572;2023-02-28T16:33:18;5.33;;;4.27;;
4084;SDS011;2057;50.858;6.572;2023-02-28T16:35:43;7.57;;;3.90;;
4084;SDS011;2057;50.858;6.572;2023-02-28T16:38:09;8.53;;;4.17;;
4084;SDS011;2057;50.858;6.572;2023-02-28T16:40:35;5.83;;;3.77;;
4084;SDS011;2057;50.858;6.572;2023-02-28T16:43:01;7.30;;;5.00;;
4084;SDS011;2057;50.858;6.572;2023-02-28T16:45:31;14.73;;;4.10;;
4084;SDS011;2057;50.858;6.572;2023-02-28T16:47:56;4.13;;;3.73;;
4084;SDS011;2057;50.858;6.572;2023-02-28T16:50:26;5.43;;;3.57;;
4084;SDS011;2057;50.858;6.572;2023-02-28T16:52:54;4.90;;;4.40;;
4084;SDS011;2057;50.858;6.572;2023-02-28T16:55:21;11.10;;;4.73;;
4084;SDS011;2057;50.858;6.572;2023-02-28T16:57:50;5.00;;;3.57;;
4084;SDS011;2057;50.858;6.572;2023-02-28T17:00:18;3.70;;;3.33;;
4084;SDS011;2057;50.858;6.572;2023-02-28T17:02:43;5.23;;;3.63;;
4084;SDS011;2057;50.858;6.572;2023-02-28T17:05:11;7.97;;;4.30;;
4084;SDS011;2057;50.858;6.572;2023-02-28T17:07:37;7.17;;;3.67;;
4084;SDS011;2057;50.858;6.572;2023-02-28T17:10:08;8.20;;;4.10;;
4084;SDS011;2057;50.858;6.572;2023-02-28T17:12:35;7.37;;;4.67;;
4084;SDS011;2057;50.858;6.572;2023-02-28T17:15:01;11.70;;;5.17;;
4084;SDS011;2057;50.858;6.572;2023-02-28T17:17:26;8.20;;;4.60;;
4084;SDS011;2057;50.858;6.572;2023-02-28T17:19:52;9.23;;;5.43;;
4084;SDS011;2057;50.858;6.572;2023-02-28T17:22:17;7.50;;;5.10;;
4084;SDS011;2057;50.858;6.572;2023-02-28T17:24:42;8.33;;;5.73;;
4084;SDS011;2057;50.858;6.572;2023-02-28T17:27:10;4.83;;;4.13;;
4084;SDS011;2057;50.858;6.572;2023-02-28T17:29:37;7.10;;;4.40;;
4084;SDS011;2057;50.858;6.572;2023-02-28T17:32:03;6.50;;;5.03;;
4084;SDS011;2057;50.858;6.572;2023-02-28T17:34:30;7.30;;;4.57;;
4084;SDS011;2057;50.858;6.572;2023-02-28T17:36:58;6.50;;;4.53;;
4084;SDS011;2057;50.858;6.572;2023-02-28T17:39:24;5.83;;;4.40;;
4084;SDS011;2057;50.858;6.572;2023-02-28T17:41:52;7.07;;;5.00;;
4084;SDS011;2057;50.858;6.572;2023-02-28T17:44:19;8.30;;;4.77;;
4084;SDS011;2057;50.858;6.572;2023-02-28T17:46:45;6.90;;;4.80;;
4084;SDS011;2057;50.858;6.572;2023-02-28T17:49:11;6.60;;;4.90;;
4084;SDS011;2057;50.858;6.572;2023-02-28T17:51:37;11.33;;;4.57;;
4084;SDS011;2057;50.858;6.572;2023-02-28T17:54:02;9.20;;;4.87;;
4084;SDS011;2057;50.858;6.572;2023-02-28T17:56:28;11.30;;;4.70;;
4084;SDS011;2057;50.858;6.572;2023-02-28T17:58:54;8.53;;;4.10;;
4084;SDS011;2057;50.858;6.572;2023-02-28T18:01:21;9.17;;;4.90;;
4084;SDS011;2057;50.858;6.572;2023-02-28T18:03:49;9.60;;;4.73;;
4084;SDS011;2057;50.858;6.572;2023-02-28T18:06:22;7.10;;;3.40;;
4084;SDS011;2057;50.858;6.572;2023-02-28T18:09:16;4.70;;;3.60;;
4084;SDS011;2057;50.858;6.572;2023-02-28T18:11:46;5.15;;;4.13;;